sensor_id;sensor_type;location;lat;lon;timestamp;pressure;altitude;pressure_sealevel;temperature;humidity
13934;BME280;7039;52.168;9.866;2023-02-04T00:01:49;101709.84;;;5.43;92.35
13934;BME280;7039;52.168;9.866;2023-02-04T00:04:16;101718.59;;;5.29;92.52
13934;BME280;7039;52.168;9.866;2023-02-04T00:06:42;101721.97;;;5.38;92.52
13934;BME280;7039;52.168;9.866;2023-02-04T00:09:10;101739.16;;;5.42;92.73
13934;BME280;7039;52.168;9.866;2023-02-04T00:11:37;101727.22;;;5.29;91.90
13934;BME280;7039;52.168;9.866;2023-02-04T00:14:03;101726.41;;;5.19;92.49
13934;BME280;7039;52.168;9.866;2023-02-04T00:16:30;101732.47;;;5.18;92.26
13934;BME280;7039;52.168;9.866;2023-02-04T00:18:56;101717.94;;;5.00;92.67
13934;BME280;7039;52.168;9.866;2023-02-04T00:21:23;101730.03;;;4.97;92.83
13934;BME280;7039;52.168;9.866;2023-02-04T00:23:49;101748.09;;;5.03;93.17
13934;BME280;7039;52.168;9.866;2023-02-04T00:26:17;101757.53;;;5.12;92.21
13934;BME280;7039;52.168;9.866;2023-02-04T00:28:43;101761.06;;;5.00;92.13
13934;BME280;7039;52.168;9.866;2023-02-04T00:31:10;101760.19;;;5.01;91.79
13934;BME280;7039;52.168;9.866;2023-02-04T00:33:36;101760.19;;;5.02;91.67
13934;BME280;7039;52.168;9.866;2023-02-04T00:36:03;101761.78;;;5.17;91.41
13934;BME280;7039;52.168;9.866;2023-02-04T00:38:30;101769.72;;;4.93;90.98
13934;BME280;7039;52.168;9.866;2023-02-04T00:40:56;101773.09;;;5.01;90.83
13934;BME280;7039;52.168;9.866;2023-02-04T00:43:24;101776.47;;;5.11;90.20
13934;BME280;7039;52.168;9.866;2023-02-04T00:45:51;101778.28;;;4.95;89.50
13934;BME280;7039;52.168;9.866;2023-02-04T00:48:17;101780.84;;;5.09;89.81
13934;BME280;7039;52.168;9.866;2023-02-04T00:50:43;101791.22;;;4.96;89.05
13934;BME280;7039;52.168;9.866;2023-02-04T00:53:10;101795.53;;;4.94;89.25
13934;BME280;7039;52.168;9.866;2023-02-04T00:55:36;101798.22;;;4.76;89.75
13934;BME280;7039;52.168;9.866;2023-02-04T00:58:03;101805.91;;;4.90;89.72
13934;BME280;7039;52.168;9.866;2023-02-04T01:00:31;101829.16;;;4.94;89.37
13934;BME280;7039;52.168;9.866;2023-02-04T01:02:57;101834.41;;;4.77;89.39
13934;BME280;7039;52.168;9.866;2023-02-04T01:05:24;101838.72;;;4.80;89.41
13934;BME280;7039;52.168;9.866;2023-02-04T01:07:50;101841.34;;;4.65;90.43
13934;BME280;7039;52.168;9.866;2023-02-04T01:10:17;101843.84;;;4.86;90.15
13934;BME280;7039;52.168;9.866;2023-02-04T01:12:43;101844.72;;;4.82;90.02
13934;BME280;7039;52.168;9.866;2023-02-04T01:15:10;101859.41;;;4.77;90.20
13934;BME280;7039;52.168;9.866;2023-02-04T01:17:37;101860.28;;;4.73;90.11
13934;BME280;7039;52.168;9.866;2023-02-04T01:20:06;101867.16;;;4.81;90.10
13934;BME280;7039;52.168;9.866;2023-02-04T01:22:33;101886.94;;;4.87;89.96
13934;BME280;7039;52.168;9.866;2023-02-04T01:24:59;101895.53;;;4.91;89.96
13934;BME280;7039;52.168;9.866;2023-02-04T01:27:26;101892.00;;;5.10;89.83
13934;BME280;7039;52.168;9.866;2023-02-04T01:29:52;101905.81;;;5.03;89.06
13934;BME280;7039;52.168;9.866;2023-02-04T01:32:19;101909.31;;;4.91;89.49
13934;BME280;7039;52.168;9.866;2023-02-04T01:34:46;101899.84;;;4.92;88.01
13934;BME280;7039;52.168;9.866;2023-02-04T01:37:13;101913.56;;;5.01;86.95
13934;BME280;7039;52.168;9.866;2023-02-04T01:39:39;101917.88;;;5.12;87.13
13934;BME280;7039;52.168;9.866;2023-02-04T01:42:06;101929.81;;;5.37;85.97
13934;BME280;7039;52.168;9.866;2023-02-04T01:44:33;101931.56;;;5.31;86.27
13934;BME280;7039;52.168;9.866;2023-02-04T01:46:59;101938.47;;;5.30;86.21
13934;BME280;7039;52.168;9.866;2023-02-04T01:49:26;101950.50;;;5.39;85.37
13934;BME280;7039;52.168;9.866;2023-02-04T01:51:54;101958.25;;;5.42;84.79
13934;BME280;7039;52.168;9.866;2023-02-04T01:54:20;101950.50;;;5.39;84.63
13934;BME280;7039;52.168;9.866;2023-02-04T01:56:48;101952.25;;;5.35;84.21
13934;BME280;7039;52.168;9.866;2023-02-04T01:59:16;101962.69;;;5.14;84.99
13934;BME280;7039;52.168;9.866;2023-02-04T02:01:45;101969.41;;;5.52;83.89
13934;BME280;7039;52.168;9.866;2023-02-04T02:04:14;101969.44;;;5.42;83.82
13934;BME280;7039;52.168;9.866;2023-02-04T02:06:43;101978.00;;;5.60;83.39
13934;BME280;7039;52.168;9.866;2023-02-04T02:09:12;101988.34;;;5.66;83.08
13934;BME280;7039;52.168;9.866;2023-02-04T02:11:38;101991.72;;;5.76;83.69
13934;BME280;7039;52.168;9.866;2023-02-04T02:14:05;101996.28;;;5.23;84.46
13934;BME280;7039;52.168;9.866;2023-02-04T02:16:32;101986.66;;;5.53;84.42
13934;BME280;7039;52.168;9.866;2023-02-04T02:18:58;101996.13;;;5.61;84.22
13934;BME280;7039;52.168;9.866;2023-02-04T02:21:32;101990.03;;;5.69;84.08
13934;BME280;7039;52.168;9.866;2023-02-04T02:24:22;101996.91;;;5.74;83.65
13934;BME280;7039;52.168;9.866;2023-02-04T02:26:49;102004.66;;;5.76;83.61
13934;BME280;7039;52.168;9.866;2023-02-04T02:29:17;102005.53;;;5.73;84.55
13934;BME280;7039;52.168;9.866;2023-02-04T02:31:43;102004.72;;;5.65;84.66
13934;BME280;7039;52.168;9.866;2023-02-04T02:34:10;102019.38;;;5.64;84.53
13934;BME280;7039;52.168;9.866;2023-02-04T02:36:36;102027.19;;;5.60;85.04
13934;BME280;7039;52.168;9.866;2023-02-04T02:39:04;102028.88;;;5.64;84.98
13934;BME280;7039;52.168;9.866;2023-02-04T02:41:31;102035.88;;;5.39;85.53
13934;BME280;7039;52.168;9.866;2023-02-04T02:43:58;102035.81;;;5.59;85.25
13934;BME280;7039;52.168;9.866;2023-02-04T02:46:24;102045.28;;;5.61;85.01
13934;BME280;7039;52.168;9.866;2023-02-04T02:48:51;102043.63;;;5.36;85.91
13934;BME280;7039;52.168;9.866;2023-02-04T02:51:17;102047.97;;;5.32;85.85
13934;BME280;7039;52.168;9.866;2023-02-04T02:53:44;102055.69;;;5.48;85.65
13934;BME280;7039;52.168;9.866;2023-02-04T02:56:12;102068.63;;;5.49;84.96
13934;BME280;7039;52.168;9.866;2023-02-04T02:58:38;102076.44;;;5.38;84.73
13934;BME280;7039;52.168;9.866;2023-02-04T03:01:07;102072.16;;;5.23;82.97
13934;BME280;7039;52.168;9.866;2023-02-04T03:03:35;102073.03;;;5.16;81.45
13934;BME280;7039;52.168;9.866;2023-02-04T03:06:07;102070.47;;;4.93;79.97
13934;BME280;7039;52.168;9.866;2023-02-04T03:08:35;102084.22;;;5.15;80.31
13934;BME280;7039;52.168;9.866;2023-02-04T03:11:02;102092.00;;;5.09;80.24
13934;BME280;7039;52.168;9.866;2023-02-04T03:13:31;102098.88;;;5.30;79.82
13934;BME280;7039;52.168;9.866;2023-02-04T03:15:58;102094.59;;;4.97;79.25
13934;BME280;7039;52.168;9.866;2023-02-04T03:18:25;102105.78;;;5.19;79.61
13934;BME280;7039;52.168;9.866;2023-02-04T03:20:52;102115.25;;;5.15;79.11
13934;BME280;7039;52.168;9.866;2023-02-04T03:23:19;102117.00;;;5.21;79.11
13934;BME280;7039;52.168;9.866;2023-02-04T03:25:45;102121.28;;;5.23;78.73
13934;BME280;7039;52.168;9.866;2023-02-04T03:28:12;102131.63;;;5.31;78.98
13934;BME280;7039;52.168;9.866;2023-02-04T03:30:40;102138.56;;;5.18;79.15
13934;BME280;7039;52.168;9.866;2023-02-04T03:33:06;102134.25;;;5.20;78.90
13934;BME280;7039;52.168;9.866;2023-02-04T03:35:33;102156.63;;;5.32;79.22
13934;BME280;7039;52.168;9.866;2023-02-04T03:37:59;102160.09;;;5.33;78.79
13934;BME280;7039;52.168;9.866;2023-02-04T03:40:26;102166.13;;;5.35;78.43
13934;BME280;7039;52.168;9.866;2023-02-04T03:42:54;102165.28;;;5.20;78.21
13934;BME280;7039;52.168;9.866;2023-02-04T03:45:20;102179.94;;;5.38;78.61
13934;BME280;7039;52.168;9.866;2023-02-04T03:47:48;102185.94;;;5.42;78.68
13934;BME280;7039;52.168;9.866;2023-02-04T03:50:15;102183.38;;;5.30;78.83
13934;BME280;7039;52.168;9.866;2023-02-04T03:52:41;102185.09;;;5.35;78.58
13934;BME280;7039;52.168;9.866;2023-02-04T03:55:09;102189.41;;;5.36;78.11
13934;BME280;7039;52.168;9.866;2023-02-04T03:57:35;102184.22;;;5.15;78.65
13934;BME280;7039;52.168;9.866;2023-02-04T04:00:02;102179.06;;;5.01;79.05
13934;BME280;7039;52.168;9.866;2023-02-04T04:02:29;102194.59;;;5.09;78.92
13934;BME280;7039;52.168;9.866;2023-02-04T04:04:57;102192.00;;;5.07;78.94
13934;BME280;7039;52.168;9.866;2023-02-04T04:07:23;102188.53;;;4.85;79.36
13934;BME280;7039;52.168;9.866;2023-02-04T04:09:50;102198.00;;;4.75;79.11
13934;BME280;7039;52.168;9.866;2023-02-04T04:12:16;102205.75;;;4.80;79.37
13934;BME280;7039;52.168;9.866;2023-02-04T04:14:43;102204.03;;;4.76;79.06
13934;BME280;7039;52.168;9.866;2023-02-04T04:17:09;102210.91;;;4.66;79.54
13934;BME280;7039;52.168;9.866;2023-02-04T04:19:36;102218.66;;;4.66;79.66
13934;BME280;7039;52.168;9.866;2023-02-04T04:22:04;102221.25;;;4.71;79.62
13934;BME280;7039;52.168;9.866;2023-02-04T04:24:30;102216.06;;;4.65;79.95
13934;BME280;7039;52.168;9.866;2023-02-04T04:26:57;102212.63;;;4.73;79.69
13934;BME280;7039;52.168;9.866;2023-02-04T04:29:24;102215.22;;;4.70;79.50
13934;BME280;7039;52.168;9.866;2023-02-04T04:31:50;102223.81;;;4.65;79.56
13934;BME280;7039;52.168;9.866;2023-02-04T04:34:17;102232.44;;;4.70;79.63
13934;BME280;7039;52.168;9.866;2023-02-04T04:36:43;102233.31;;;4.72;79.49
13934;BME280;7039;52.168;9.866;2023-02-04T04:39:13;102244.44;;;4.58;78.82
13934;BME280;7039;52.168;9.866;2023-02-04T04:41:40;102261.66;;;4.53;79.47
13934;BME280;7039;52.168;9.866;2023-02-04T04:44:06;102256.50;;;4.49;79.61
13934;BME280;7039;52.168;9.866;2023-02-04T04:46:33;102259.03;;;4.43;80.17
13934;BME280;7039;52.168;9.866;2023-02-04T04:48:59;102263.31;;;4.37;80.50
13934;BME280;7039;52.168;9.866;2023-02-04T04:51:26;102262.44;;;4.31;80.42
13934;BME280;7039;52.168;9.866;2023-02-04T04:53:56;102269.31;;;4.27;80.39
13934;BME280;7039;52.168;9.866;2023-02-04T04:56:24;102271.91;;;4.27;80.39
13934;BME280;7039;52.168;9.866;2023-02-04T04:58:50;102272.75;;;4.23;80.27
13934;BME280;7039;52.168;9.866;2023-02-04T05:01:17;102286.50;;;4.27;80.20
13934;BME280;7039;52.168;9.866;2023-02-04T05:03:45;102283.03;;;4.17;80.87
13934;BME280;7039;52.168;9.866;2023-02-04T05:06:11;102292.44;;;4.06;81.34
13934;BME280;7039;52.168;9.866;2023-02-04T05:08:38;102294.16;;;4.08;80.88
13934;BME280;7039;52.168;9.866;2023-02-04T05:11:04;102280.31;;;3.94;81.47
13934;BME280;7039;52.168;9.866;2023-02-04T05:13:32;102296.75;;;4.10;81.06
13934;BME280;7039;52.168;9.866;2023-02-04T05:15:59;102297.63;;;4.10;80.32
13934;BME280;7039;52.168;9.866;2023-02-04T05:18:25;102306.13;;;3.97;80.91
13934;BME280;7039;52.168;9.866;2023-02-04T05:20:51;102311.31;;;3.98;80.50
13934;BME280;7039;52.168;9.866;2023-02-04T05:23:18;102306.09;;;3.89;80.61
13934;BME280;7039;52.168;9.866;2023-02-04T05:25:44;102309.47;;;3.84;80.17
13934;BME280;7039;52.168;9.866;2023-02-04T05:28:11;102312.03;;;3.78;80.48
13934;BME280;7039;52.168;9.866;2023-02-04T05:30:39;102309.44;;;3.79;80.37
13934;BME280;7039;52.168;9.866;2023-02-04T05:33:05;102309.34;;;3.67;80.70
13934;BME280;7039;52.168;9.866;2023-02-04T05:35:32;102320.53;;;3.66;80.73
13934;BME280;7039;52.168;9.866;2023-02-04T05:37:58;102319.63;;;3.61;80.81
13934;BME280;7039;52.168;9.866;2023-02-04T05:40:24;102330.72;;;3.52;81.31
13934;BME280;7039;52.168;9.866;2023-02-04T05:42:51;102330.53;;;3.33;82.03
13934;BME280;7039;52.168;9.866;2023-02-04T05:45:17;102338.94;;;3.12;82.40
13934;BME280;7039;52.168;9.866;2023-02-04T05:47:45;102345.59;;;2.93;82.60
13934;BME280;7039;52.168;9.866;2023-02-04T05:50:12;102359.16;;;2.79;83.50
13934;BME280;7039;52.168;9.866;2023-02-04T05:52:39;102352.16;;;2.68;83.50
13934;BME280;7039;52.168;9.866;2023-02-04T05:55:06;102359.19;;;2.80;84.33
13934;BME280;7039;52.168;9.866;2023-02-04T05:57:32;102360.97;;;2.84;84.19
13934;BME280;7039;52.168;9.866;2023-02-04T05:59:59;102364.38;;;2.85;83.44
13934;BME280;7039;52.168;9.866;2023-02-04T06:02:25;102361.56;;;2.65;83.45
13934;BME280;7039;52.168;9.866;2023-02-04T06:04:53;102372.09;;;2.83;83.65
13934;BME280;7039;52.168;9.866;2023-02-04T06:07:20;102379.81;;;2.82;83.82
13934;BME280;7039;52.168;9.866;2023-02-04T06:09:46;102382.50;;;2.89;83.67
13934;BME280;7039;52.168;9.866;2023-02-04T06:12:13;102388.53;;;2.91;83.31
13934;BME280;7039;52.168;9.866;2023-02-04T06:14:39;102386.69;;;2.83;83.94
13934;BME280;7039;52.168;9.866;2023-02-04T06:17:05;102384.97;;;2.82;83.45
13934;BME280;7039;52.168;9.866;2023-02-04T06:19:32;102388.47;;;2.87;83.52
13934;BME280;7039;52.168;9.866;2023-02-04T06:22:00;102391.19;;;2.98;83.52
13934;BME280;7039;52.168;9.866;2023-02-04T06:24:26;102391.06;;;2.90;83.40
13934;BME280;7039;52.168;9.866;2023-02-04T06:26:53;102402.13;;;2.80;83.37
13934;BME280;7039;52.168;9.866;2023-02-04T06:29:19;102408.75;;;2.62;83.57
13934;BME280;7039;52.168;9.866;2023-02-04T06:31:46;102410.34;;;2.53;83.72
13934;BME280;7039;52.168;9.866;2023-02-04T06:34:13;102410.50;;;2.08;85.09
13934;BME280;7039;52.168;9.866;2023-02-04T06:36:40;102418.41;;;2.19;85.62
13934;BME280;7039;52.168;9.866;2023-02-04T06:39:08;102421.34;;;2.41;85.19
13934;BME280;7039;52.168;9.866;2023-02-04T06:41:34;102419.44;;;2.30;84.52
13934;BME280;7039;52.168;9.866;2023-02-04T06:44:01;102426.31;;;2.32;84.47
13934;BME280;7039;52.168;9.866;2023-02-04T06:46:27;102430.41;;;2.19;84.48
13934;BME280;7039;52.168;9.866;2023-02-04T06:48:53;102427.81;;;2.17;85.04
13934;BME280;7039;52.168;9.866;2023-02-04T06:51:20;102429.75;;;2.30;85.26
13934;BME280;7039;52.168;9.866;2023-02-04T06:53:47;102433.25;;;2.36;85.11
13934;BME280;7039;52.168;9.866;2023-02-04T06:56:15;102436.81;;;2.44;84.56
13934;BME280;7039;52.168;9.866;2023-02-04T06:58:41;102441.81;;;2.36;84.71
13934;BME280;7039;52.168;9.866;2023-02-04T07:01:08;102439.47;;;2.48;84.52
13934;BME280;7039;52.168;9.866;2023-02-04T07:03:34;102443.69;;;2.45;84.51
13934;BME280;7039;52.168;9.866;2023-02-04T07:06:01;102448.00;;;2.47;84.43
13934;BME280;7039;52.168;9.866;2023-02-04T07:08:28;102454.13;;;2.54;83.87
13934;BME280;7039;52.168;9.866;2023-02-04T07:10:54;102464.56;;;2.62;84.11
13934;BME280;7039;52.168;9.866;2023-02-04T07:13:23;102468.00;;;2.62;83.82
13934;BME280;7039;52.168;9.866;2023-02-04T07:15:50;102469.63;;;2.56;83.77
13934;BME280;7039;52.168;9.866;2023-02-04T07:18:17;102481.84;;;2.69;83.41
13934;BME280;7039;52.168;9.866;2023-02-04T07:20:44;102486.94;;;2.64;83.82
13934;BME280;7039;52.168;9.866;2023-02-04T07:23:10;102492.06;;;2.64;84.51
13934;BME280;7039;52.168;9.866;2023-02-04T07:25:37;102496.66;;;2.84;84.29
13934;BME280;7039;52.168;9.866;2023-02-04T07:28:04;102497.84;;;2.48;84.06
13934;BME280;7039;52.168;9.866;2023-02-04T07:30:32;102496.59;;;2.26;85.35
13934;BME280;7039;52.168;9.866;2023-02-04T07:32:58;102499.22;;;2.27;85.70
13934;BME280;7039;52.168;9.866;2023-02-04T07:35:25;102502.78;;;2.36;85.84
13934;BME280;7039;52.168;9.866;2023-02-04T07:37:51;102505.59;;;2.51;85.38
13934;BME280;7039;52.168;9.866;2023-02-04T07:40:18;102508.78;;;2.35;85.44
13934;BME280;7039;52.168;9.866;2023-02-04T07:42:46;102521.50;;;2.27;85.36
13934;BME280;7039;52.168;9.866;2023-02-04T07:45:12;102530.19;;;2.34;85.49
13934;BME280;7039;52.168;9.866;2023-02-04T07:47:40;102536.25;;;2.36;85.68
13934;BME280;7039;52.168;9.866;2023-02-04T07:50:07;102552.22;;;2.68;85.62
13934;BME280;7039;52.168;9.866;2023-02-04T07:52:33;102557.69;;;2.86;84.86
13934;BME280;7039;52.168;9.866;2023-02-04T07:55:00;102550.22;;;3.03;84.61
13934;BME280;7039;52.168;9.866;2023-02-04T07:57:26;102556.47;;;3.22;84.20
13934;BME280;7039;52.168;9.866;2023-02-04T07:59:54;102565.34;;;3.41;84.09
13934;BME280;7039;52.168;9.866;2023-02-04T08:02:20;102561.97;;;3.47;83.63
13934;BME280;7039;52.168;9.866;2023-02-04T08:04:48;102569.94;;;3.64;83.41
13934;BME280;7039;52.168;9.866;2023-02-04T08:07:15;102574.41;;;3.77;83.11
13934;BME280;7039;52.168;9.866;2023-02-04T08:09:41;102572.00;;;3.91;82.55
13934;BME280;7039;52.168;9.866;2023-02-04T08:12:08;102574.63;;;3.97;82.55
13934;BME280;7039;52.168;9.866;2023-02-04T08:14:34;102581.59;;;4.04;82.27
13934;BME280;7039;52.168;9.866;2023-02-04T08:17:01;102577.41;;;4.15;81.99
13934;BME280;7039;52.168;9.866;2023-02-04T08:19:28;102578.34;;;4.22;81.54
13934;BME280;7039;52.168;9.866;2023-02-04T08:21:58;102581.06;;;4.36;81.26
13934;BME280;7039;52.168;9.866;2023-02-04T08:24:25;102588.81;;;4.34;81.13
13934;BME280;7039;52.168;9.866;2023-02-04T08:26:51;102582.78;;;4.35;81.12
13934;BME280;7039;52.168;9.866;2023-02-04T08:29:18;102586.22;;;4.36;81.01
13934;BME280;7039;52.168;9.866;2023-02-04T08:31:45;102581.84;;;4.27;80.89
13934;BME280;7039;52.168;9.866;2023-02-04T08:34:12;102582.56;;;4.12;81.59
13934;BME280;7039;52.168;9.866;2023-02-04T08:36:38;102574.81;;;4.15;81.01
13934;BME280;7039;52.168;9.866;2023-02-04T08:39:06;102569.66;;;4.15;81.11
13934;BME280;7039;52.168;9.866;2023-02-04T08:41:33;102573.88;;;4.06;81.68
13934;BME280;7039;52.168;9.866;2023-02-04T08:43:59;102569.69;;;4.17;81.69
13934;BME280;7039;52.168;9.866;2023-02-04T08:46:26;102581.03;;;4.30;81.53
13934;BME280;7039;52.168;9.866;2023-02-04T08:48:52;102577.63;;;4.34;81.47
13934;BME280;7039;52.168;9.866;2023-02-04T08:51:19;102575.81;;;4.25;81.56
13934;BME280;7039;52.168;9.866;2023-02-04T08:53:45;102581.03;;;4.30;81.80
13934;BME280;7039;52.168;9.866;2023-02-04T08:56:13;102586.31;;;4.41;81.94
13934;BME280;7039;52.168;9.866;2023-02-04T08:58:40;102600.06;;;4.43;81.55
13934;BME280;7039;52.168;9.866;2023-02-04T09:01:07;102607.00;;;4.47;81.45
13934;BME280;7039;52.168;9.866;2023-02-04T09:03:35;102608.72;;;4.43;81.84
13934;BME280;7039;52.168;9.866;2023-02-04T09:06:02;102618.19;;;4.47;81.52
13934;BME280;7039;52.168;9.866;2023-02-04T09:08:28;102625.19;;;4.56;81.49
13934;BME280;7039;52.168;9.866;2023-02-04T09:10:55;102623.53;;;4.61;81.24
13934;BME280;7039;52.168;9.866;2023-02-04T09:13:23;102617.56;;;4.70;81.23
13934;BME280;7039;52.168;9.866;2023-02-04T09:15:49;102626.19;;;4.72;81.21
13934;BME280;7039;52.168;9.866;2023-02-04T09:18:16;102635.78;;;4.82;81.08
13934;BME280;7039;52.168;9.866;2023-02-04T09:20:46;102637.59;;;4.94;81.29
13934;BME280;7039;52.168;9.866;2023-02-04T09:23:13;102640.22;;;5.00;80.60
13934;BME280;7039;52.168;9.866;2023-02-04T09:25:41;102640.38;;;5.21;80.04
13934;BME280;7039;52.168;9.866;2023-02-04T09:28:09;102638.56;;;5.08;78.84
13934;BME280;7039;52.168;9.866;2023-02-04T09:30:38;102653.31;;;5.18;78.12
13934;BME280;7039;52.168;9.866;2023-02-04T09:33:05;102651.66;;;5.30;77.29
13934;BME280;7039;52.168;9.866;2023-02-04T09:35:32;102664.75;;;5.53;77.31
13934;BME280;7039;52.168;9.866;2023-02-04T09:37:59;102664.91;;;5.77;77.04
13934;BME280;7039;52.168;9.866;2023-02-04T09:40:28;102667.53;;;5.90;75.69
13934;BME280;7039;52.168;9.866;2023-02-04T09:42:56;102671.09;;;6.10;75.36
13934;BME280;7039;52.168;9.866;2023-02-04T09:45:26;102670.34;;;6.30;74.33
13934;BME280;7039;52.168;9.866;2023-02-04T09:47:56;102665.97;;;6.24;74.03
13934;BME280;7039;52.168;9.866;2023-02-04T09:50:25;102666.00;;;6.28;74.27
13934;BME280;7039;52.168;9.866;2023-02-04T09:52:55;102665.97;;;6.21;73.51
13934;BME280;7039;52.168;9.866;2023-02-04T09:55:27;102671.16;;;6.16;73.53
13934;BME280;7039;52.168;9.866;2023-02-04T09:57:54;102674.56;;;6.15;73.24
13934;BME280;7039;52.168;9.866;2023-02-04T10:00:23;102677.19;;;6.17;73.24
13934;BME280;7039;52.168;9.866;2023-02-04T10:02:50;102671.88;;;5.94;73.47
13934;BME280;7039;52.168;9.866;2023-02-04T10:05:38;102679.63;;;5.92;73.37
13934;BME280;7039;52.168;9.866;2023-02-04T10:08:05;102673.53;;;5.82;73.97
13934;BME280;7039;52.168;9.866;2023-02-04T10:10:32;102664.81;;;5.59;74.42
13934;BME280;7039;52.168;9.866;2023-02-04T10:13:02;102671.63;;;5.49;75.03
13934;BME280;7039;52.168;9.866;2023-02-04T10:15:34;102678.63;;;5.64;74.86
13934;BME280;7039;52.168;9.866;2023-02-04T10:18:24;102683.06;;;5.85;75.13
13934;BME280;7039;52.168;9.866;2023-02-04T10:20:56;102689.16;;;5.93;75.22
13934;BME280;7039;52.168;9.866;2023-02-04T10:23:26;102696.13;;;6.02;74.77
13934;BME280;7039;52.168;9.866;2023-02-04T10:25:52;102692.69;;;6.07;74.64
13934;BME280;7039;52.168;9.866;2023-02-04T10:28:18;102707.44;;;6.22;74.56
13934;BME280;7039;52.168;9.866;2023-02-04T10:30:45;102703.22;;;6.51;73.73
13934;BME280;7039;52.168;9.866;2023-02-04T10:33:13;102711.06;;;6.87;72.82
13934;BME280;7039;52.168;9.866;2023-02-04T10:35:47;102710.22;;;7.05;71.94
13934;BME280;7039;52.168;9.866;2023-02-04T10:38:16;102709.38;;;7.00;71.64
13934;BME280;7039;52.168;9.866;2023-02-04T10:40:43;102718.03;;;7.11;71.25
13934;BME280;7039;52.168;9.866;2023-02-04T10:43:13;102711.09;;;7.21;71.11
13934;BME280;7039;52.168;9.866;2023-02-04T10:45:43;102710.22;;;7.04;71.54
13934;BME280;7039;52.168;9.866;2023-02-04T10:48:14;102711.97;;;7.16;71.06
13934;BME280;7039;52.168;9.866;2023-02-04T10:50:41;102715.44;;;7.21;71.25
13934;BME280;7039;52.168;9.866;2023-02-04T10:53:09;102721.47;;;7.23;71.02
13934;BME280;7039;52.168;9.866;2023-02-04T10:56:13;102720.63;;;7.27;70.66
13934;BME280;7039;52.168;9.866;2023-02-04T10:58:41;102728.38;;;7.51;70.23
13934;BME280;7039;52.168;9.866;2023-02-04T11:01:09;102723.19;;;7.53;69.92
13934;BME280;7039;52.168;9.866;2023-02-04T11:03:37;102716.28;;;7.15;70.72
13934;BME280;7039;52.168;9.866;2023-02-04T11:06:09;102708.44;;;6.77;70.92
13934;BME280;7039;52.168;9.866;2023-02-04T11:08:37;102704.13;;;6.71;70.68
13934;BME280;7039;52.168;9.866;2023-02-04T11:11:05;102702.44;;;6.84;70.49
13934;BME280;7039;52.168;9.866;2023-02-04T11:13:43;102709.34;;;6.89;70.36
13934;BME280;7039;52.168;9.866;2023-02-04T11:19:35;102701.56;;;6.91;71.20
13934;BME280;7039;52.168;9.866;2023-02-04T11:22:17;102705.03;;;7.04;71.23
13934;BME280;7039;52.168;9.866;2023-02-04T11:24:45;102705.88;;;6.92;71.20
13934;BME280;7039;52.168;9.866;2023-02-04T11:27:20;102709.38;;;7.02;71.69
13934;BME280;7039;52.168;9.866;2023-02-04T11:29:48;102720.59;;;7.24;70.98
13934;BME280;7039;52.168;9.866;2023-02-04T11:32:31;102706.75;;;6.93;70.86
13934;BME280;7039;52.168;9.866;2023-02-04T11:35:16;102720.63;;;7.11;70.86
13934;BME280;7039;52.168;9.866;2023-02-04T11:37:46;102715.41;;;6.99;70.08
13934;BME280;7039;52.168;9.866;2023-02-04T11:40:22;102714.50;;;6.79;69.95
13934;BME280;7039;52.168;9.866;2023-02-04T11:42:48;102718.00;;;6.99;71.45
13934;BME280;7039;52.168;9.866;2023-02-04T11:45:28;102717.13;;;7.36;69.84
13934;BME280;7039;52.168;9.866;2023-02-04T11:47:56;102717.16;;;7.43;69.30
13934;BME280;7039;52.168;9.866;2023-02-04T11:50:27;102724.03;;;7.86;69.12
13934;BME280;7039;52.168;9.866;2023-02-04T11:52:55;102730.00;;;8.03;67.39
13934;BME280;7039;52.168;9.866;2023-02-04T11:55:22;102726.47;;;8.21;65.79
13934;BME280;7039;52.168;9.866;2023-02-04T11:57:51;102723.91;;;8.15;66.12
13934;BME280;7039;52.168;9.866;2023-02-04T12:00:21;102728.28;;;8.13;65.62
13934;BME280;7039;52.168;9.866;2023-02-04T12:02:50;102733.38;;;8.30;66.32
13934;BME280;7039;52.168;9.866;2023-02-04T12:05:20;102729.91;;;8.34;66.13
13934;BME280;7039;52.168;9.866;2023-02-04T12:07:47;102734.97;;;8.65;65.38
13934;BME280;7039;52.168;9.866;2023-02-04T12:10:22;102738.31;;;8.87;63.93
13934;BME280;7039;52.168;9.866;2023-02-04T12:12:51;102734.84;;;8.91;63.50
13934;BME280;7039;52.168;9.866;2023-02-04T12:15:23;102727.16;;;8.72;62.33
13934;BME280;7039;52.168;9.866;2023-02-04T12:18:03;102718.50;;;8.66;62.27
13934;BME280;7039;52.168;9.866;2023-02-04T12:20:31;102717.66;;;8.61;62.12
13934;BME280;7039;52.168;9.866;2023-02-04T12:22:57;102722.69;;;8.91;61.94
13934;BME280;7039;52.168;9.866;2023-02-04T12:25:24;102718.41;;;8.84;61.76
13934;BME280;7039;52.168;9.866;2023-02-04T12:27:51;102714.94;;;8.84;59.80
13934;BME280;7039;52.168;9.866;2023-02-04T12:30:18;102725.06;;;9.20;60.62
13934;BME280;7039;52.168;9.866;2023-02-04T12:32:46;102725.19;;;9.04;60.28
13934;BME280;7039;52.168;9.866;2023-02-04T12:35:13;102720.19;;;8.74;62.16
13934;BME280;7039;52.168;9.866;2023-02-04T12:37:40;102722.66;;;8.94;61.33
13934;BME280;7039;52.168;9.866;2023-02-04T12:40:07;102729.63;;;8.88;61.54
13934;BME280;7039;52.168;9.866;2023-02-04T12:42:34;102733.16;;;8.81;60.95
13934;BME280;7039;52.168;9.866;2023-02-04T12:45:00;102732.31;;;8.75;61.68
13934;BME280;7039;52.168;9.866;2023-02-04T12:47:27;102721.22;;;8.38;62.06
13934;BME280;7039;52.168;9.866;2023-02-04T12:49:55;102729.84;;;8.54;62.93
13934;BME280;7039;52.168;9.866;2023-02-04T12:52:21;102733.84;;;9.07;61.98
13934;BME280;7039;52.168;9.866;2023-02-04T12:54:48;102739.75;;;9.26;59.91
13934;BME280;7039;52.168;9.866;2023-02-04T12:57:14;102734.44;;;9.43;60.59
13934;BME280;7039;52.168;9.866;2023-02-04T12:59:44;102742.94;;;9.60;60.62
13934;BME280;7039;52.168;9.866;2023-02-04T13:02:10;102740.22;;;9.74;58.86
13934;BME280;7039;52.168;9.866;2023-02-04T13:04:37;102732.78;;;9.31;60.33
13934;BME280;7039;52.168;9.866;2023-02-04T13:07:06;102742.19;;;9.49;60.01
13934;BME280;7039;52.168;9.866;2023-02-04T13:09:32;102745.63;;;9.51;59.62
13934;BME280;7039;52.168;9.866;2023-02-04T13:11:59;102746.72;;;9.26;59.88
13934;BME280;7039;52.168;9.866;2023-02-04T13:14:25;102745.00;;;9.23;59.73
13934;BME280;7039;52.168;9.866;2023-02-04T13:16:51;102743.50;;;8.91;59.89